map of PVR home
PVR - Airport
Location
City:  Puerto Vallarta, Jalisco, México
Name:Licenciado Gustavo Díaz Ordaz International Airport
ICAO:MMPR
IATA:PVR

Details
Type:Airport (Aerodrome, Airfield)
Use:Public/Civil, International (customs port of entry)
Latitude:20°40'48"N (20.680083)
Longitude:105°15'15"W (-105.254166)
Datum:WGS 1984
Elevation:23 ft (7 m)
Variation:6.79°E (WMM2015 magnetic declination)
-0.10° annual change
Runways:1
Longest:10171 × 148 ft (3100 × 45 m), paved

Time
Time Zone:UTC-6 (DST-5)
Local Time:

Weather
METAR:MMPR 160644Z 04004KT 12SM SCT070 BKN250 18/16 A3003 RMK 8/038

Related Locations
Nearby:
Farthest:RRG: 11706 mi / 18839 km
Plaine Corail [Sir Gaëtan Duval Airport (Plaine Corail Airport)], Rodrigues Island, MU

Find:

   beyond  
but within

Other Information
Maps:
NOTAMs:
Links:
Sources:

  
  • flag of México
  • flag of Jalisco
  

Sectional Chart

Flight Planning
at skyvector.com

Satellite Image

Google Maps Satellite view

 

Copyright © 2004-2018 Karl L. Swartz. All rights reserved.
The Great Circle Mapper name and logo are trademarks of the Great Circle Mapper.
All other trademarks mentioned herein belong to their respective owners.
Please see credits for attibutions and further copyright information.

  Follow gcmap on Facebook Follow gcmap on Twitter Follow gcmap on Google+ GCmap on LinkedIn

hCard Microformat

Geo Microformat